createdAt,value
2023-05-17T09:16:14.934Z,97.40
2023-05-17T09:18:42.982Z,98.10
2023-05-17T09:21:14.672Z,98.90
2023-05-17T09:23:45.250Z,99.40
2023-05-17T09:59:00.757Z,95.90
2023-05-17T10:01:29.830Z,96.20
2023-05-17T10:04:02.654Z,97.50
2023-05-17T10:09:04.688Z,98.60
2023-05-17T10:11:36.294Z,99.90
2023-05-17T10:14:12.219Z,99.90
2023-05-17T10:16:40.615Z,99.90
2023-05-17T10:19:09.940Z,99.90
2023-05-17T10:46:33.941Z,98.20
2023-05-17T10:49:02.701Z,99.40
2023-05-17T10:51:33.005Z,99.90
2023-05-17T10:54:10.742Z,98.40
2023-05-17T10:56:42.573Z,98.00
2023-05-17T10:59:21.486Z,97.60
2023-05-17T11:01:59.948Z,95.80
2023-05-17T11:04:29.502Z,95.80
2023-05-17T11:07:27.169Z,96.30
2023-05-17T11:09:56.938Z,96.60
2023-05-17T11:12:33.913Z,97.50
2023-05-17T11:15:08.551Z,96.00
2023-05-17T11:50:51.673Z,97.80
2023-05-17T11:53:20.364Z,97.90
2023-05-17T11:55:50.482Z,97.40
2023-05-17T11:58:19.395Z,96.70
2023-05-17T16:37:05.111Z,96.30
2023-05-17T16:39:33.765Z,96.50
2023-05-17T16:42:01.664Z,96.70
2023-05-17T16:44:29.610Z,97.00
2023-05-17T16:46:58.913Z,97.00
2023-05-17T16:49:26.798Z,97.80
2023-05-17T16:51:54.662Z,97.90
2023-05-17T16:54:23.110Z,98.00
2023-05-17T16:56:51.009Z,97.90
2023-05-17T16:59:19.162Z,97.80
2023-05-17T17:01:47.143Z,98.10
2023-05-17T17:04:17.010Z,97.80
2023-05-17T17:06:44.990Z,97.80
2023-05-17T17:09:12.866Z,98.30
2023-05-17T17:11:41.051Z,98.50
2023-05-17T17:14:08.992Z,98.00
2023-05-17T17:16:36.944Z,98.30
2023-05-17T17:19:05.323Z,97.80
2023-05-17T17:21:36.480Z,98.10
2023-05-17T17:24:05.431Z,98.50
2023-05-17T17:26:35.168Z,98.00
2023-05-17T17:29:03.841Z,97.70
2023-05-17T17:31:31.900Z,97.70
2023-05-17T17:33:59.846Z,97.90
2023-05-17T17:36:27.746Z,98.00
2023-05-17T17:38:56.975Z,98.10
2023-05-17T17:41:24.984Z,98.20
2023-05-17T17:43:52.978Z,97.60
2023-05-17T17:46:20.952Z,98.10
2023-05-17T17:48:48.875Z,98.40
2023-05-17T17:51:16.749Z,98.20
2023-05-17T17:53:44.656Z,98.70
2023-05-17T17:56:13.855Z,98.10
2023-05-17T17:58:41.771Z,98.20
2023-05-17T18:01:09.838Z,98.20
2023-05-17T18:03:37.781Z,98.20
2023-05-17T18:06:06.069Z,98.30
2023-05-17T18:08:33.927Z,98.30
2023-05-17T18:11:02.297Z,98.10
2023-05-17T18:13:31.557Z,98.40
2023-05-17T18:15:59.603Z,98.50
2023-05-17T18:18:27.473Z,98.50
2023-05-17T18:20:55.558Z,98.40
2023-05-17T18:23:23.511Z,98.30
2023-05-17T18:25:51.414Z,98.30
2023-05-17T18:28:26.843Z,98.90
2023-05-17T18:31:07.188Z,98.60
2023-05-17T18:33:35.070Z,98.60
2023-05-17T18:36:02.947Z,99.00
2023-05-17T18:38:30.861Z,99.20
2023-05-17T18:40:58.773Z,99.50
2023-05-17T18:43:26.672Z,98.90
2023-05-17T18:45:54.544Z,98.70
2023-05-17T18:48:23.781Z,98.80
2023-05-17T18:50:51.753Z,99.20
2023-05-17T18:53:19.620Z,99.30
2023-05-17T18:55:47.520Z,99.40
2023-05-17T18:58:15.444Z,99.90
2023-05-17T19:00:45.203Z,99.90
2023-05-17T19:03:13.088Z,99.90
2023-05-17T19:05:42.336Z,99.90
2023-05-17T19:08:10.509Z,99.90
2023-05-17T19:10:38.382Z,99.90
